Time;durP1;ratioP1;P1;durP2;ratioP2;P2;SDS_P1;SDS_P2;PMS_P1;PMS_P2;Temp;Humidity;BMP_temperature;BMP_pressure;BME280_temperature;BME280_humidity;BME280_pressure;Samples;Min_cycle;Max_cycle;Signal;HPM_P1;HPM_P2
2022/01/08 00:00:30;;;;;;;14.43;7.30;;;-4.10;93.00;;;;;;5019928;28;20656;-69
2022/01/08 00:02:56;;;;;;;27.73;12.45;;;-4.00;93.20;;;;;;5020146;28;20523;-70
2022/01/08 00:05:23;;;;;;;41.95;19.85;;;-3.80;93.40;;;;;;5020113;28;20087;-69
2022/01/08 00:07:49;;;;;;;40.45;18.92;;;-3.60;93.30;;;;;;5017675;28;20083;-64
2022/01/08 00:10:15;;;;;;;41.40;20.65;;;-3.40;93.30;;;;;;5023089;28;20033;-68
2022/01/08 00:12:41;;;;;;;39.95;20.40;;;-3.30;93.30;;;;;;5024581;28;20032;-68
2022/01/08 00:15:07;;;;;;;42.08;21.10;;;-3.20;93.10;;;;;;5023739;28;20120;-68
2022/01/08 00:17:34;;;;;;;45.85;21.17;;;-3.10;93.30;;;;;;5019439;28;20056;-69
2022/01/08 00:20:00;;;;;;;46.47;23.75;;;-3.00;93.40;;;;;;5017496;28;20038;-68
2022/01/08 00:22:26;;;;;;;44.75;23.58;;;-2.90;93.20;;;;;;5020301;28;20025;-69
2022/01/08 00:24:52;;;;;;;48.10;24.45;;;-2.80;93.30;;;;;;5020424;28;20036;-67
2022/01/08 00:27:22;;;;;;;46.40;23.70;;;-2.70;93.20;;;;;;5019137;28;20062;-67
2022/01/08 00:29:49;;;;;;;48.83;24.75;;;-2.60;93.60;;;;;;5019961;28;20016;-67
2022/01/08 00:32:15;;;;;;;41.42;22.73;;;-2.60;93.80;;;;;;5019355;28;20037;-69
2022/01/08 00:34:44;;;;;;;41.13;20.10;;;-2.60;93.90;;;;;;5018820;28;20088;-69
2022/01/08 00:37:10;;;;;;;37.17;18.00;;;-2.50;93.90;;;;;;5022466;28;20475;-70
2022/01/08 00:39:37;;;;;;;36.38;19.02;;;-2.50;93.80;;;;;;5019737;28;20037;-67
2022/01/08 00:42:03;;;;;;;31.27;17.90;;;-2.40;94.20;;;;;;5020929;28;20053;-67
2022/01/08 00:44:29;;;;;;;35.22;17.80;;;-2.30;94.20;;;;;;5016524;28;20033;-66
2022/01/08 00:46:54;;;;;;;27.13;14.43;;;-2.40;94.00;;;;;;5020354;28;20069;-68
2022/01/08 00:49:20;;;;;;;15.68;9.70;;;-2.50;94.50;;;;;;5022427;28;20029;-66
2022/01/08 00:51:46;;;;;;;23.23;11.93;;;-2.40;94.70;;;;;;5018361;28;20488;-69
2022/01/08 00:54:11;;;;;;;25.50;13.90;;;-2.30;94.90;;;;;;5020383;28;20035;-67
2022/01/08 00:56:39;;;;;;;29.08;14.80;;;-2.30;94.60;;;;;;5024358;28;20033;-67
2022/01/08 00:59:05;;;;;;;26.45;14.63;;;-2.20;94.50;;;;;;5021527;28;20112;-68
2022/01/08 01:01:31;;;;;;;30.92;16.77;;;-2.10;94.30;;;;;;5017584;28;20056;-67
2022/01/08 01:03:57;;;;;;;28.70;16.73;;;-2.10;94.20;;;;;;5013082;28;20484;-66
2022/01/08 01:06:23;;;;;;;28.67;14.02;;;-2.10;94.30;;;;;;5022623;28;20040;-67
2022/01/08 01:08:50;;;;;;;29.15;15.23;;;-2.10;94.30;;;;;;5025523;28;20030;-67
2022/01/08 01:11:16;;;;;;;28.45;15.13;;;-2.10;94.30;;;;;;5019793;28;20025;-67
2022/01/08 01:13:41;;;;;;;26.45;15.32;;;-2.10;94.30;;;;;;5019685;28;20076;-67
2022/01/08 01:16:07;;;;;;;22.60;13.00;;;-2.10;94.50;;;;;;5019181;28;20049;-67
2022/01/08 01:18:33;;;;;;;23.35;13.38;;;-2.00;94.50;;;;;;5019759;28;20117;-67
2022/01/08 01:20:59;;;;;;;25.25;13.30;;;-2.10;94.80;;;;;;5016874;28;20034;-66
2022/01/08 01:23:33;;;;;;;20.90;12.60;;;-2.00;94.60;;;;;;5019434;28;20044;-67
2022/01/08 01:26:02;;;;;;;24.77;11.98;;;-2.00;94.70;;;;;;5022403;28;20042;-67
2022/01/08 01:43:05;;;;;;;20.10;10.35;;;-1.80;94.20;;;;;;5019597;28;20769;-67
2022/01/08 01:47:44;;;;;;;15.35;10.05;;;-1.80;94.10;;;;;;5024605;28;20512;-67
2022/01/08 01:50:10;;;;;;;18.83;9.93;;;-1.80;94.20;;;;;;5019836;28;20180;-67
2022/01/08 01:52:36;;;;;;;14.95;9.77;;;-1.80;94.30;;;;;;5023002;28;20069;-67
2022/01/08 01:55:02;;;;;;;17.30;9.93;;;-1.80;94.30;;;;;;5028424;28;20037;-68
2022/01/08 01:57:28;;;;;;;15.18;8.73;;;-1.80;94.30;;;;;;5023383;28;20041;-68
2022/01/08 01:59:54;;;;;;;13.23;7.38;;;-1.80;94.30;;;;;;5025282;28;20028;-68
2022/01/08 02:02:20;;;;;;;17.15;7.97;;;-1.90;94.40;;;;;;5022530;28;20428;-68
2022/01/08 02:04:45;;;;;;;14.77;8.77;;;-1.90;94.20;;;;;;5020843;28;20400;-68
2022/01/08 02:07:11;;;;;;;12.45;7.85;;;-1.90;94.40;;;;;;5020297;28;20514;-68
2022/01/08 02:09:39;;;;;;;15.77;8.80;;;-2.00;94.30;;;;;;5019182;28;20044;-69
2022/01/08 02:12:17;;;;;;;15.68;8.65;;;-2.00;94.40;;;;;;5017311;28;20049;-69
2022/01/08 02:14:45;;;;;;;13.98;8.40;;;-1.90;94.00;;;;;;5023744;28;20073;-68
2022/01/08 02:17:10;;;;;;;14.98;8.57;;;-2.00;93.80;;;;;;5015343;28;20034;-68
2022/01/08 02:19:38;;;;;;;14.43;8.32;;;-2.00;93.80;;;;;;5021960;28;20033;-66
2022/01/08 02:22:06;;;;;;;17.75;8.52;;;-2.00;93.80;;;;;;5018899;28;20146;-67
2022/01/08 02:24:32;;;;;;;17.77;8.55;;;-2.10;94.00;;;;;;5019226;28;20536;-68
2022/01/08 02:26:58;;;;;;;14.35;7.97;;;-2.10;94.10;;;;;;5022085;28;20057;-67
2022/01/08 02:29:25;;;;;;;13.52;7.60;;;-2.10;93.80;;;;;;5018757;28;20064;-67
2022/01/08 02:31:58;;;;;;;10.85;6.60;;;-2.20;93.90;;;;;;5020633;28;20083;-67
2022/01/08 02:34:26;;;;;;;13.88;7.05;;;-2.20;93.80;;;;;;5017598;28;20124;-68
2022/01/08 02:36:52;;;;;;;12.05;7.03;;;-2.20;93.60;;;;;;5020532;28;20033;-67
2022/01/08 02:39:18;;;;;;;9.68;6.75;;;-2.20;93.60;;;;;;5017154;28;20034;-68
2022/01/08 02:41:47;;;;;;;14.90;6.72;;;-2.30;93.50;;;;;;5022944;28;20025;-68
2022/01/08 02:44:13;;;;;;;10.88;6.47;;;-2.30;93.60;;;;;;5017700;28;20026;-68
2022/01/08 02:46:40;;;;;;;13.85;7.32;;;-2.40;93.40;;;;;;5022015;28;20512;-67
2022/01/08 02:49:07;;;;;;;11.38;6.82;;;-2.40;93.60;;;;;;5020541;28;20535;-68
2022/01/08 02:51:36;;;;;;;16.13;7.05;;;-2.40;93.40;;;;;;5026630;28;20382;-68
2022/01/08 02:54:09;;;;;;;9.98;6.03;;;-2.50;93.30;;;;;;5024279;28;20502;-68
2022/01/08 02:56:43;;;;;;;13.65;7.70;;;-2.50;93.10;;;;;;5021699;28;20033;-68
2022/01/08 02:59:09;;;;;;;11.55;6.95;;;-2.50;93.50;;;;;;5020817;28;20036;-68
2022/01/08 03:01:35;;;;;;;12.40;5.50;;;-2.60;93.40;;;;;;5022111;28;20025;-68
2022/01/08 03:04:02;;;;;;;13.13;6.50;;;-2.60;93.30;;;;;;5018325;28;20484;-68
2022/01/08 03:06:28;;;;;;;13.02;7.25;;;-2.70;92.90;;;;;;5017393;28;20077;-68
2022/01/08 03:08:54;;;;;;;13.88;7.03;;;-2.80;92.60;;;;;;5022361;28;20506;-68
2022/01/08 03:11:19;;;;;;;13.55;7.65;;;-2.80;92.70;;;;;;5020479;28;20036;-68
2022/01/08 03:13:45;;;;;;;9.38;6.75;;;-2.90;92.90;;;;;;5017481;28;20041;-68
2022/01/08 03:16:11;;;;;;;18.95;8.45;;;-2.90;93.00;;;;;;5021428;28;20114;-68
2022/01/08 03:18:37;;;;;;;16.52;9.93;;;-2.90;93.00;;;;;;5017781;28;20099;-68
2022/01/08 03:21:14;;;;;;;10.25;6.07;;;-2.90;93.00;;;;;;5019609;28;20472;-68
2022/01/08 03:24:17;;;;;;;10.30;4.70;;;-2.90;93.00;;;;;;5018955;28;20034;-68
2022/01/08 03:26:33;;;;;;;9.35;5.07;;;-3.00;91.90;;;;;;5017007;28;20057;-68
2022/01/08 03:28:59;;;;;;;7.53;4.72;;;-3.10;91.90;;;;;;5018481;28;20088;-68
2022/01/08 03:31:25;;;;;;;9.65;5.03;;;-3.20;92.10;;;;;;5018342;28;20105;-68
2022/01/08 03:33:52;;;;;;;11.15;5.40;;;-3.20;92.20;;;;;;5019725;28;20149;-68
2022/01/08 03:36:19;;;;;;;12.00;6.53;;;-3.20;92.40;;;;;;5021359;28;20037;-68
2022/01/08 03:38:48;;;;;;;12.52;6.82;;;-3.20;92.60;;;;;;5021604;28;20038;-68
2022/01/08 03:41:14;;;;;;;11.43;6.25;;;-3.20;92.90;;;;;;5018556;28;20087;-68
2022/01/08 03:43:40;;;;;;;7.40;4.68;;;-3.30;92.90;;;;;;5018541;28;20619;-68
2022/01/08 03:46:06;;;;;;;10.10;5.45;;;-3.40;92.60;;;;;;5016731;28;20702;-67
2022/01/08 03:51:19;;;;;;;9.85;5.82;;;-3.50;92.10;;;;;;4992422;28;21091;-67
2022/01/08 03:53:44;;;;;;;10.68;5.97;;;-3.50;92.30;;;;;;5015643;28;20037;-68
2022/01/08 03:56:10;;;;;;;11.15;5.45;;;-3.60;92.30;;;;;;5015670;28;20049;-68
2022/01/08 03:58:36;;;;;;;10.25;6.10;;;-3.50;92.70;;;;;;5016302;28;20084;-68
2022/01/08 04:01:02;;;;;;;9.20;5.43;;;-3.50;92.30;;;;;;5015207;28;20034;-68
2022/01/08 04:03:28;;;;;;;11.85;5.38;;;-3.50;92.60;;;;;;5014935;28;20017;-68
2022/01/08 04:05:53;;;;;;;11.55;5.20;;;-3.50;92.60;;;;;;5016556;28;20048;-68
2022/01/08 04:08:19;;;;;;;8.80;5.22;;;-3.40;92.40;;;;;;5016547;28;20033;-68
2022/01/08 04:10:45;;;;;;;13.15;6.15;;;-3.50;92.20;;;;;;5017486;28;20927;-68
2022/01/08 04:13:19;;;;;;;7.05;4.75;;;-3.60;92.30;;;;;;5015944;28;20030;-68
2022/01/08 04:15:51;;;;;;;14.18;5.47;;;-3.60;92.30;;;;;;5016673;28;20033;-69
2022/01/08 04:18:16;;;;;;;;;;;-3.60;92.40;;;;;;5015994;28;20034;-67
2022/01/08 04:23:32;;;;;;;20.45;11.68;;;-3.50;92.80;;;;;;5013220;28;20054;-68
2022/01/08 04:25:57;;;;;;;25.80;14.20;;;-3.40;93.20;;;;;;5013168;28;20049;-68
2022/01/08 04:28:23;;;;;;;19.65;10.95;;;-3.20;93.70;;;;;;5014991;28;20079;-67
2022/01/08 04:30:48;;;;;;;11.07;7.03;;;-3.20;93.30;;;;;;5014841;28;20028;-66
2022/01/08 04:33:14;;;;;;;12.18;7.72;;;-3.30;92.30;;;;;;5022490;28;20030;-68
2022/01/08 04:35:40;;;;;;;15.45;9.98;;;-3.50;91.90;;;;;;5020867;28;20484;-68
2022/01/08 04:38:06;;;;;;;16.10;9.15;;;-3.80;92.70;;;;;;5022026;28;20099;-68
2022/01/08 04:40:32;;;;;;;18.92;9.57;;;-3.90;93.10;;;;;;5020671;28;20021;-67
2022/01/08 04:42:59;;;;;;;19.88;11.77;;;-3.80;93.50;;;;;;5025360;28;20092;-68
2022/01/08 04:45:29;;;;;;;22.65;11.40;;;-3.80;93.70;;;;;;5020133;28;20056;-68
2022/01/08 04:48:01;;;;;;;17.85;11.05;;;-3.70;93.40;;;;;;5022227;28;20041;-68
2022/01/08 04:50:29;;;;;;;18.60;10.63;;;-3.60;93.20;;;;;;5022467;28;20025;-67
2022/01/08 04:52:55;;;;;;;19.52;11.63;;;-3.50;93.20;;;;;;5023243;28;20492;-68
2022/01/08 04:55:21;;;;;;;20.33;11.15;;;-3.50;93.50;;;;;;5022333;28;20124;-68
2022/01/08 04:57:47;;;;;;;19.85;11.10;;;-3.40;93.10;;;;;;5027474;28;20037;-67
2022/01/08 05:00:15;;;;;;;20.48;11.52;;;-3.40;93.10;;;;;;5018979;28;20034;-67
2022/01/08 05:02:41;;;;;;;14.52;9.13;;;-3.40;93.10;;;;;;5020429;28;20531;-67
2022/01/08 05:05:07;;;;;;;17.65;9.52;;;-3.40;93.40;;;;;;5026327;28;20037;-68
2022/01/08 05:07:32;;;;;;;13.85;7.95;;;-3.60;93.20;;;;;;5022296;28;20041;-67
2022/01/08 05:09:58;;;;;;;12.95;8.00;;;-3.70;93.20;;;;;;5023429;28;20535;-67
2022/01/08 05:12:24;;;;;;;14.88;8.32;;;-3.70;93.20;;;;;;5018930;28;20518;-68
2022/01/08 05:14:50;;;;;;;16.33;8.35;;;-3.70;93.30;;;;;;5023171;28;20034;-68
2022/01/08 05:17:15;;;;;;;15.50;9.30;;;-3.70;93.50;;;;;;5017422;28;20183;-68
2022/01/08 05:19:49;;;;;;;17.95;10.45;;;-3.70;93.40;;;;;;5025036;28;20851;-68
2022/01/08 05:22:23;;;;;;;19.67;11.70;;;-3.60;93.30;;;;;;5015156;28;20053;-68
2022/01/08 05:24:50;;;;;;;23.27;11.75;;;-3.60;93.50;;;;;;5019052;28;20127;-68
2022/01/08 05:27:17;;;;;;;13.85;8.45;;;-3.60;93.60;;;;;;5021808;28;20049;-68
2022/01/08 05:29:47;;;;;;;15.32;8.18;;;-3.60;93.30;;;;;;5019623;28;20056;-68
2022/01/08 05:32:17;;;;;;;13.95;7.80;;;-3.70;93.00;;;;;;5019230;28;20048;-68
2022/01/08 05:34:48;;;;;;;19.90;9.43;;;-3.80;93.10;;;;;;5023615;28;20436;-67
2022/01/08 05:37:16;;;;;;;12.73;6.60;;;-3.80;93.20;;;;;;5021984;28;20033;-68
2022/01/08 05:39:42;;;;;;;9.40;5.50;;;-3.80;92.90;;;;;;5020757;28;20645;-68
2022/01/08 05:42:08;;;;;;;7.30;4.80;;;-3.80;92.80;;;;;;5022493;28;20022;-68
2022/01/08 05:44:34;;;;;;;9.48;5.60;;;-3.90;92.40;;;;;;5019544;28;20039;-68
2022/01/08 05:47:01;;;;;;;9.02;5.55;;;-4.00;92.10;;;;;;5020131;28;20136;-68
2022/01/08 05:49:27;;;;;;;11.63;6.25;;;-4.00;92.30;;;;;;5026859;28;20866;-68
2022/01/08 05:51:53;;;;;;;8.55;5.15;;;-4.00;92.70;;;;;;5018008;28;20039;-68
2022/01/08 05:54:18;;;;;;;13.63;6.70;;;-4.00;92.90;;;;;;5020325;28;20168;-68
2022/01/08 05:56:49;;;;;;;13.73;7.55;;;-4.00;93.00;;;;;;5023127;28;20037;-68
2022/01/08 05:59:14;;;;;;;24.50;10.75;;;-4.00;92.90;;;;;;5019225;28;20034;-68
2022/01/08 06:01:40;;;;;;;20.15;10.43;;;-4.00;92.60;;;;;;5022378;28;20092;-68
2022/01/08 06:04:06;;;;;;;30.90;15.63;;;-4.00;92.90;;;;;;5018188;28;20044;-68
2022/01/08 06:06:31;;;;;;;55.80;25.48;;;-4.00;92.70;;;;;;5020814;28;20049;-68
2022/01/08 06:08:57;;;;;;;59.70;27.63;;;-4.00;92.70;;;;;;5018941;28;20033;-68
2022/01/08 06:11:23;;;;;;;37.15;17.60;;;-3.90;92.90;;;;;;5020150;28;20029;-68
2022/01/08 06:13:52;;;;;;;31.23;12.75;;;-3.90;92.80;;;;;;5025622;28;20092;-68
2022/01/08 06:16:17;;;;;;;13.02;6.32;;;-3.90;92.30;;;;;;5018305;28;20152;-69
2022/01/08 06:18:43;;;;;;;9.32;4.70;;;-3.90;91.90;;;;;;5018892;28;20034;-68
2022/01/08 06:21:08;;;;;;;8.63;4.10;;;-4.00;91.70;;;;;;5019571;28;20072;-68
2022/01/08 06:23:34;;;;;;;7.70;3.63;;;-4.10;91.70;;;;;;5028700;28;20034;-68
2022/01/08 06:26:00;;;;;;;4.82;2.90;;;-4.20;91.30;;;;;;5024198;28;20120;-68
2022/01/08 06:28:26;;;;;;;6.00;3.08;;;-4.30;91.30;;;;;;5024475;28;20119;-68
2022/01/08 06:30:53;;;;;;;7.13;3.35;;;-4.30;91.20;;;;;;5024130;28;20048;-68
2022/01/08 06:33:20;;;;;;;8.35;3.33;;;-4.40;91.60;;;;;;5026470;28;20480;-68
2022/01/08 06:35:46;;;;;;;9.55;4.97;;;-4.40;91.70;;;;;;5026095;28;20034;-68
2022/01/08 06:38:12;;;;;;;11.02;5.97;;;-4.40;91.90;;;;;;5024693;28;20726;-68
2022/01/08 06:40:37;;;;;;;14.95;8.20;;;-4.40;92.10;;;;;;5020842;28;20113;-68
2022/01/08 06:43:03;;;;;;;44.22;22.13;;;-4.40;92.30;;;;;;5021497;28;20047;-68
2022/01/08 06:45:29;;;;;;;33.33;19.73;;;-4.30;92.50;;;;;;5028374;28;20157;-69
2022/01/08 06:47:55;;;;;;;36.97;18.15;;;-4.30;92.70;;;;;;5024457;28;20054;-68
2022/01/08 06:50:21;;;;;;;39.95;22.30;;;-4.30;92.70;;;;;;5025564;28;20187;-67
2022/01/08 06:52:46;;;;;;;15.65;9.10;;;-4.30;92.90;;;;;;5025140;28;20511;-68
2022/01/08 06:55:12;;;;;;;10.30;4.93;;;-4.30;92.70;;;;;;5026376;28;20161;-68
2022/01/08 06:57:38;;;;;;;6.78;3.78;;;-4.30;92.00;;;;;;5022773;28;20582;-68
2022/01/08 07:00:04;;;;;;;10.38;3.97;;;-4.40;91.70;;;;;;5018001;28;20107;-68
2022/01/08 07:02:30;;;;;;;8.82;3.72;;;-4.50;91.70;;;;;;5025871;28;20025;-68
2022/01/08 07:04:56;;;;;;;5.15;3.20;;;-4.70;91.80;;;;;;5023105;28;20049;-67
2022/01/08 07:07:21;;;;;;;9.52;3.88;;;-4.80;92.10;;;;;;5024364;28;20037;-67
2022/01/08 07:09:47;;;;;;;8.90;4.63;;;-4.80;92.60;;;;;;5023044;28;20033;-67
2022/01/08 07:12:13;;;;;;;9.02;5.03;;;-4.70;92.70;;;;;;5022824;28;20032;-67
2022/01/08 07:14:38;;;;;;;22.48;9.95;;;-4.60;92.90;;;;;;5025040;28;20427;-68
2022/01/08 07:17:04;;;;;;;73.93;36.58;;;-4.60;92.90;;;;;;5023241;28;20094;-68
2022/01/08 07:19:30;;;;;;;84.35;43.30;;;-4.50;92.90;;;;;;5026764;28;20037;-68
2022/01/08 07:21:55;;;;;;;63.83;33.90;;;-4.40;93.00;;;;;;5025395;28;20036;-68
2022/01/08 07:24:21;;;;;;;80.57;39.65;;;-4.30;93.00;;;;;;5024499;28;20030;-67
2022/01/08 07:26:49;;;;;;;36.78;17.60;;;-4.30;93.20;;;;;;5021866;28;20026;-68
2022/01/08 07:29:15;;;;;;;23.90;12.98;;;-4.20;92.90;;;;;;5023300;28;20042;-68
2022/01/08 07:31:41;;;;;;;47.97;23.30;;;-4.10;92.90;;;;;;5022851;28;20064;-68
2022/01/08 07:34:06;;;;;;;42.90;21.77;;;-4.00;93.50;;;;;;5027887;28;20063;-68
2022/01/08 07:36:32;;;;;;;72.97;36.42;;;-4.00;93.20;;;;;;5022830;28;20087;-68
2022/01/08 07:38:57;;;;;;;92.35;47.92;;;-3.90;93.10;;;;;;5024948;28;20041;-68
2022/01/08 07:41:23;;;;;;;92.03;46.42;;;-3.80;93.20;;;;;;5022097;28;20040;-69
2022/01/08 07:43:49;;;;;;;49.75;24.63;;;-3.60;93.40;;;;;;5019674;28;20447;-69
2022/01/08 07:46:14;;;;;;;60.67;30.42;;;-3.50;93.50;;;;;;5021072;28;20074;-68
2022/01/08 07:48:40;;;;;;;66.70;34.38;;;-3.30;93.60;;;;;;5021088;28;20056;-68
2022/01/08 07:51:06;;;;;;;53.13;27.58;;;-3.00;93.40;;;;;;5018876;28;20018;-69
2022/01/08 07:53:32;;;;;;;55.97;29.90;;;-2.90;93.10;;;;;;5014559;28;20042;-69
2022/01/08 07:55:58;;;;;;;66.35;31.75;;;-2.70;93.30;;;;;;5014627;28;20531;-69
2022/01/08 07:58:24;;;;;;;64.63;35.28;;;-2.60;93.00;;;;;;5014023;28;20177;-68
2022/01/08 08:00:55;;;;;;;67.65;37.25;;;-2.50;92.80;;;;;;5013708;28;20587;-69
2022/01/08 08:03:20;;;;;;;53.42;29.27;;;-2.30;92.90;;;;;;5013973;28;20036;-69
2022/01/08 08:05:47;;;;;;;45.65;23.63;;;-2.20;92.70;;;;;;5012932;28;20034;-69
2022/01/08 08:08:16;;;;;;;48.50;27.70;;;-2.00;92.40;;;;;;5011918;28;20053;-68
2022/01/08 08:10:43;;;;;;;57.53;35.45;;;-1.70;92.30;;;;;;5015026;28;20030;-68
2022/01/08 08:13:08;;;;;;;64.28;36.72;;;-1.70;92.10;;;;;;5011583;28;20036;-68
2022/01/08 08:15:34;;;;;;;48.60;30.95;;;-1.50;92.20;;;;;;5015126;28;20025;-68
2022/01/08 08:18:00;;;;;;;39.92;23.35;;;-1.40;92.00;;;;;;5012302;28;20450;-68
2022/01/08 08:20:25;;;;;;;36.33;20.73;;;-1.30;91.90;;;;;;5014519;28;20571;-68
2022/01/08 08:22:51;;;;;;;35.95;22.33;;;-1.20;92.10;;;;;;5014595;28;20401;-69
2022/01/08 08:25:17;;;;;;;17.58;10.68;;;-1.10;92.60;;;;;;5015312;28;20424;-69
2022/01/08 08:27:43;;;;;;;15.30;9.45;;;-0.90;92.40;;;;;;5012920;28;20073;-69
2022/01/08 08:30:10;;;;;;;11.77;8.43;;;-0.70;91.90;;;;;;5012140;28;20021;-69
2022/01/08 08:32:36;;;;;;;16.23;8.82;;;-0.60;91.90;;;;;;5020572;28;20034;-67
2022/01/08 08:35:03;;;;;;;12.65;7.88;;;-0.40;91.30;;;;;;5020711;28;20029;-69
2022/01/08 08:37:28;;;;;;;13.50;9.02;;;-0.40;91.70;;;;;;5022953;28;20066;-68
2022/01/08 08:39:54;;;;;;;12.38;8.32;;;-0.30;91.30;;;;;;5020657;28;20049;-67
2022/01/08 08:42:20;;;;;;;13.15;7.88;;;-0.30;91.50;;;;;;5016528;28;20030;-68
2022/01/08 08:44:48;;;;;;;13.18;7.65;;;-0.30;91.60;;;;;;5014471;28;20108;-68
2022/01/08 08:47:14;;;;;;;12.07;7.70;;;-0.20;91.50;;;;;;5013163;28;20065;-68
2022/01/08 08:49:40;;;;;;;15.07;10.10;;;-0.20;91.60;;;;;;5014218;28;20041;-68
2022/01/08 08:52:06;;;;;;;18.38;10.40;;;-0.20;91.70;;;;;;5011415;28;20112;-68
2022/01/08 08:54:31;;;;;;;14.43;9.25;;;-0.30;92.00;;;;;;5016904;28;20571;-68
2022/01/08 08:56:58;;;;;;;12.88;8.05;;;-0.20;92.10;;;;;;5011855;28;20041;-68
2022/01/08 08:59:24;;;;;;;11.50;8.40;;;-0.10;91.90;;;;;;5018849;28;20039;-68
2022/01/08 09:01:50;;;;;;;11.80;8.05;;;0.00;91.50;;;;;;5021624;28;20088;-68
2022/01/08 09:04:16;;;;;;;12.93;8.63;;;0.10;91.00;;;;;;5018708;28;20042;-68
2022/01/08 09:06:41;;;;;;;15.02;9.13;;;0.20;90.90;;;;;;5017303;28;20073;-68
2022/01/08 09:09:07;;;;;;;11.77;8.35;;;0.20;91.00;;;;;;5021163;28;20048;-67
2022/01/08 09:11:34;;;;;;;16.95;12.73;;;0.30;90.50;;;;;;5023597;28;20025;-68
2022/01/08 09:14:00;;;;;;;14.57;9.27;;;0.40;90.70;;;;;;5023057;28;20472;-67
2022/01/08 09:16:25;;;;;;;10.07;7.03;;;0.50;90.80;;;;;;5024735;28;20047;-68
2022/01/08 09:18:51;;;;;;;10.70;6.68;;;0.50;90.50;;;;;;5020551;28;20033;-68
2022/01/08 09:21:17;;;;;;;10.95;7.18;;;0.60;90.20;;;;;;5013413;28;20026;-68
2022/01/08 09:23:43;;;;;;;12.57;8.45;;;0.50;90.30;;;;;;5016967;28;20045;-68
2022/01/08 09:26:09;;;;;;;14.98;7.32;;;0.60;90.30;;;;;;5022400;28;20026;-68
2022/01/08 09:28:35;;;;;;;9.43;6.70;;;0.50;90.10;;;;;;5023980;28;20112;-67
2022/01/08 09:31:02;;;;;;;10.38;6.75;;;0.50;90.00;;;;;;5020620;28;20032;-68
2022/01/08 09:33:28;;;;;;;10.55;6.47;;;0.40;90.30;;;;;;5021526;28;20025;-68
2022/01/08 09:35:54;;;;;;;11.45;6.82;;;0.10;90.90;;;;;;5021988;28;20021;-68
2022/01/08 09:38:20;;;;;;;12.05;7.20;;;0.10;91.60;;;;;;5023621;28;20034;-68
2022/01/08 09:40:46;;;;;;;11.82;7.45;;;0.30;91.30;;;;;;5020417;28;20037;-68
2022/01/08 09:43:12;;;;;;;8.45;6.38;;;0.40;91.10;;;;;;5012330;28;20091;-68
2022/01/08 09:45:38;;;;;;;10.18;6.65;;;0.60;91.10;;;;;;5008701;28;20137;-67
2022/01/08 09:48:04;;;;;;;11.07;7.85;;;0.70;90.30;;;;;;5015235;28;20071;-68
2022/01/08 09:50:30;;;;;;;11.43;7.43;;;0.80;90.10;;;;;;5026112;28;20064;-68
2022/01/08 09:52:58;;;;;;;10.98;7.03;;;0.90;89.40;;;;;;5020604;28;20056;-68
2022/01/08 09:55:26;;;;;;;11.45;7.13;;;1.00;89.80;;;;;;5022916;28;20025;-67
2022/01/08 09:57:52;;;;;;;8.88;5.90;;;1.00;89.60;;;;;;5019444;28;20029;-68
2022/01/08 10:00:19;;;;;;;9.30;6.32;;;1.20;89.00;;;;;;5021632;28;20400;-68
2022/01/08 10:02:45;;;;;;;11.07;7.00;;;1.30;88.60;;;;;;5021426;28;20036;-68
2022/01/08 10:05:13;;;;;;;9.68;6.15;;;1.30;88.00;;;;;;5018391;28;20033;-69
2022/01/08 10:07:40;;;;;;;12.15;7.05;;;1.40;87.80;;;;;;5022930;28;20637;-69
2022/01/08 10:10:12;;;;;;;11.40;6.70;;;1.50;87.40;;;;;;5016448;28;20025;-69
2022/01/08 10:13:00;;;;;;;11.13;6.72;;;1.50;87.50;;;;;;5026750;28;20036;-69
2022/01/08 10:18:36;;;;;;;10.57;6.30;;;1.60;86.60;;;;;;5024539;28;20400;-67
2022/01/08 10:21:17;;;;;;;16.58;10.27;;;1.70;85.40;;;;;;5022471;28;20400;-68
2022/01/08 10:23:44;;;;;;;11.77;8.77;;;1.70;85.50;;;;;;5021654;28;20037;-68
2022/01/08 10:26:18;;;;;;;10.80;6.95;;;1.80;85.80;;;;;;5024247;28;20095;-68
2022/01/08 10:28:54;;;;;;;11.15;7.20;;;1.70;86.00;;;;;;5024855;28;20030;-68
2022/01/08 10:31:23;;;;;;;9.98;6.05;;;1.70;86.30;;;;;;5021141;28;20140;-67
2022/01/08 10:33:52;;;;;;;35.80;6.97;;;1.80;85.90;;;;;;5021090;28;20049;-69
2022/01/08 10:36:33;;;;;;;16.63;5.78;;;1.80;85.70;;;;;;5020392;28;21185;-69
2022/01/08 10:39:02;;;;;;;9.55;5.30;;;1.80;85.10;;;;;;5018087;28;20029;-69
2022/01/08 10:41:29;;;;;;;130.90;64.88;;;1.80;85.70;;;;;;5022827;28;20057;-69
2022/01/08 10:44:13;;;;;;;43.22;26.52;;;1.80;83.00;;;;;;5021475;28;20222;-69
2022/01/08 10:46:44;;;;;;;16.52;10.07;;;1.80;83.20;;;;;;5018676;28;20029;-68
2022/01/08 10:49:13;;;;;;;18.00;13.95;;;1.80;82.70;;;;;;5017124;28;20500;-67
2022/01/08 10:51:40;;;;;;;9.88;5.72;;;1.90;82.50;;;;;;5020565;28;20057;-69
2022/01/08 10:54:09;;;;;;;9.05;5.68;;;1.90;81.40;;;;;;5022246;28;20034;-68
2022/01/08 10:56:39;;;;;;;9.43;6.20;;;2.00;81.20;;;;;;5020669;28;20061;-68
2022/01/08 10:59:20;;;;;;;51.90;32.42;;;2.00;81.80;;;;;;5019787;28;20079;-68
2022/01/08 11:01:50;;;;;;;10.98;8.02;;;2.10;80.30;;;;;;5024643;28;20446;-68
2022/01/08 11:04:19;;;;;;;7.60;5.28;;;2.20;80.00;;;;;;5020193;28;20061;-68
2022/01/08 11:06:56;;;;;;;8.32;4.75;;;2.20;80.30;;;;;;5017719;28;20499;-69
2022/01/08 11:09:24;;;;;;;9.85;6.50;;;2.30;78.90;;;;;;5017916;28;20089;-69
2022/01/08 11:11:51;;;;;;;8.35;5.40;;;2.40;79.40;;;;;;5021040;28;20053;-69
2022/01/08 11:14:46;;;;;;;7.70;5.55;;;2.50;79.20;;;;;;5023634;28;20055;-69
2022/01/08 11:17:08;;;;;;;8.18;5.55;;;2.50;78.00;;;;;;5019976;28;20040;-69
2022/01/08 11:19:37;;;;;;;13.95;9.43;;;2.60;76.90;;;;;;5019342;28;20523;-69
2022/01/08 11:22:04;;;;;;;8.32;5.50;;;2.50;77.60;;;;;;5019987;28;20034;-68
2022/01/08 11:24:32;;;;;;;7.25;4.70;;;2.60;78.00;;;;;;5022028;28;20029;-69
2022/01/08 11:26:58;;;;;;;19.45;13.43;;;2.60;76.90;;;;;;5019571;28;20635;-69
2022/01/08 11:29:27;;;;;;;12.82;6.63;;;2.60;76.90;;;;;;5020309;28;20057;-69
2022/01/08 11:31:55;;;;;;;58.83;44.20;;;2.60;76.10;;;;;;5022163;28;20042;-69
2022/01/08 11:34:24;;;;;;;19.50;14.52;;;2.60;74.30;;;;;;5027245;28;20040;-69
2022/01/08 11:36:51;;;;;;;14.25;10.18;;;2.50;74.10;;;;;;5020228;28;20068;-68
2022/01/08 11:39:17;;;;;;;51.00;42.35;;;2.50;74.90;;;;;;5021376;28;20084;-67
2022/01/08 11:41:46;;;;;;;9.20;6.03;;;2.50;75.60;;;;;;5020735;28;20030;-68
2022/01/08 11:44:12;;;;;;;11.95;8.45;;;2.50;77.00;;;;;;5023619;28;20030;-68
2022/01/08 11:46:38;;;;;;;9.85;7.80;;;2.50;75.60;;;;;;5013223;28;20034;-68
2022/01/08 11:49:05;;;;;;;27.98;18.67;;;2.50;75.00;;;;;;5019116;28;20037;-69
2022/01/08 11:51:32;;;;;;;11.35;9.35;;;2.60;75.20;;;;;;5020281;28;20407;-68
2022/01/08 11:53:59;;;;;;;10.13;5.70;;;2.60;75.20;;;;;;5020098;28;20058;-68
2022/01/08 11:56:34;;;;;;;7.50;4.75;;;2.60;75.40;;;;;;5018904;28;20038;-69
2022/01/08 11:59:11;;;;;;;8.50;5.18;;;2.70;74.90;;;;;;5023293;28;20112;-69
2022/01/08 12:01:41;;;;;;;7.85;4.95;;;2.70;74.80;;;;;;5022972;28;20073;-69
2022/01/08 12:04:13;;;;;;;9.70;6.53;;;2.70;73.50;;;;;;5025179;28;20064;-69
2022/01/08 12:06:39;;;;;;;10.25;7.63;;;2.70;75.40;;;;;;5013912;28;20523;-64
2022/01/08 12:09:10;;;;;;;10.43;7.20;;;2.70;75.90;;;;;;5012400;28;20555;-68
2022/01/08 12:11:36;;;;;;;8.43;5.85;;;2.70;76.00;;;;;;5009299;28;20029;-68
2022/01/08 12:14:16;;;;;;;8.13;5.13;;;2.70;75.40;;;;;;5011215;28;20452;-68
2022/01/08 12:16:50;;;;;;;13.35;8.98;;;2.80;75.70;;;;;;5010279;28;20162;-68
2022/01/08 12:19:35;;;;;;;20.00;10.88;;;2.80;76.20;;;;;;5014021;28;20041;-68
2022/01/08 12:22:21;;;;;;;22.10;15.20;;;2.90;75.50;;;;;;5011036;28;20030;-68
2022/01/08 12:24:53;;;;;;;15.68;9.75;;;2.90;74.50;;;;;;5019849;28;20152;-69
2022/01/08 12:27:33;;;;;;;8.23;5.35;;;2.90;74.50;;;;;;5023823;28;20029;-68
2022/01/08 12:30:01;;;;;;;9.25;5.40;;;2.90;74.10;;;;;;5021475;28;20101;-68
2022/01/08 12:32:45;;;;;;;6.65;5.25;;;3.00;73.90;;;;;;5023843;28;20082;-69
2022/01/08 12:35:18;;;;;;;9.43;4.93;;;3.00;73.30;;;;;;5025332;28;20422;-68
2022/01/08 12:37:53;;;;;;;22.08;14.52;;;2.90;73.20;;;;;;5025213;28;20033;-68
2022/01/08 12:40:38;;;;;;;15.13;10.43;;;2.90;73.40;;;;;;5024364;28;20057;-68
2022/01/08 12:43:30;;;;;;;10.63;6.30;;;2.90;73.80;;;;;;5012179;28;20029;-69
2022/01/08 12:46:13;;;;;;;8.90;5.03;;;2.90;73.00;;;;;;5010173;28;20041;-69
2022/01/08 12:48:59;;;;;;;9.77;5.80;;;2.90;73.20;;;;;;5010479;28;20534;-69
2022/01/08 12:51:26;;;;;;;7.07;5.07;;;3.00;73.10;;;;;;5013920;28;20037;-67
2022/01/08 12:54:05;;;;;;;8.70;6.10;;;3.10;72.70;;;;;;5016011;28;20104;-69
2022/01/08 12:56:33;;;;;;;8.93;5.60;;;3.00;71.30;;;;;;5020423;28;23635;-68
2022/01/08 12:59:02;;;;;;;6.85;5.05;;;3.00;72.50;;;;;;5018249;28;20704;-69
2022/01/08 13:01:28;;;;;;;16.27;10.65;;;3.10;72.20;;;;;;5026975;28;20037;-69
2022/01/08 13:03:58;;;;;;;7.10;5.00;;;3.10;72.40;;;;;;5019363;28;20112;-69
2022/01/08 13:06:27;;;;;;;6.78;4.70;;;3.10;71.80;;;;;;5017734;28;20021;-69